createdAt,value
2018-02-23T00:02:02.769Z,70.76
2018-02-23T00:04:31.202Z,71.04
2018-02-23T00:07:00.160Z,71.10
2018-02-23T00:09:28.573Z,71.09
2018-02-23T00:11:57.012Z,71.24
2018-02-23T00:14:25.517Z,71.06
2018-02-23T00:16:54.098Z,71.15
2018-02-23T00:19:22.554Z,70.95
2018-02-23T00:21:51.606Z,71.21
2018-02-23T00:24:20.051Z,70.98
2018-02-23T00:26:49.327Z,71.49
2018-02-23T00:29:17.859Z,71.34
2018-02-23T00:31:46.355Z,71.62
2018-02-23T00:34:14.801Z,71.44
2018-02-23T00:36:43.338Z,71.08
2018-02-23T00:39:12.036Z,70.64
2018-02-23T00:41:40.520Z,70.18
2018-02-23T00:44:09.744Z,69.27
2018-02-23T00:46:38.222Z,69.39
2018-02-23T00:49:06.778Z,69.33
2018-02-23T00:51:35.470Z,69.50
2018-02-23T00:54:03.913Z,68.88
2018-02-23T00:56:33.064Z,68.98
2018-02-23T00:59:01.583Z,69.03
2018-02-23T01:01:30.133Z,69.31
2018-02-23T01:03:58.552Z,69.47
2018-02-23T01:06:28.671Z,69.11
2018-02-23T01:08:57.162Z,69.65
2018-02-23T01:11:25.648Z,69.62
2018-02-23T01:13:55.168Z,69.54
2018-02-23T01:16:23.600Z,70.02
2018-02-23T01:18:52.130Z,69.75
2018-02-23T01:21:20.735Z,69.33
2018-02-23T01:23:49.174Z,69.84
2018-02-23T01:26:17.625Z,70.06
2018-02-23T01:28:46.524Z,69.83
2018-02-23T01:31:14.976Z,69.46
2018-02-23T01:33:44.395Z,69.73
2018-02-23T01:36:13.061Z,69.99
2018-02-23T01:38:41.877Z,69.97
2018-02-23T01:41:10.356Z,69.55
2018-02-23T01:43:39.456Z,69.53
2018-02-23T01:46:07.939Z,69.57
2018-02-23T01:48:36.431Z,69.56
2018-02-23T01:51:05.677Z,69.59
2018-02-23T01:53:35.013Z,69.44
2018-02-23T01:56:04.431Z,69.00
2018-02-23T01:58:33.196Z,69.09
2018-02-23T02:01:02.292Z,68.54
2018-02-23T02:03:30.746Z,68.57
2018-02-23T02:05:59.964Z,68.50
2018-02-23T02:08:28.409Z,68.69
2018-02-23T02:10:56.916Z,68.66
2018-02-23T02:13:25.404Z,68.51
2018-02-23T02:15:53.858Z,68.38
2018-02-23T02:18:22.311Z,68.51
2018-02-23T02:20:50.823Z,68.31
2018-02-23T02:23:19.328Z,67.61
2018-02-23T02:25:48.693Z,67.26
2018-02-23T02:28:17.211Z,67.62
2018-02-23T02:30:45.684Z,66.99
2018-02-23T02:33:14.921Z,67.05
2018-02-23T02:35:44.470Z,67.17
2018-02-23T02:38:12.905Z,66.88
2018-02-23T02:40:41.361Z,66.66
2018-02-23T02:43:09.948Z,66.83
2018-02-23T02:45:38.938Z,66.91
2018-02-23T02:48:07.419Z,67.06
2018-02-23T02:50:35.976Z,67.27
2018-02-23T02:53:04.603Z,67.58
2018-02-23T02:55:35.036Z,67.26
2018-02-23T02:58:03.498Z,67.23
2018-02-23T03:00:32.338Z,67.51
2018-02-23T03:03:00.751Z,67.29
2018-02-23T03:05:29.224Z,67.46
2018-02-23T03:07:58.641Z,68.13
2018-02-23T03:10:27.226Z,68.40
2018-02-23T03:12:55.794Z,67.59
2018-02-23T03:15:24.217Z,67.56
2018-02-23T03:17:52.646Z,67.38
2018-02-23T03:20:22.117Z,68.22
2018-02-23T03:22:50.589Z,68.37
2018-02-23T03:25:19.031Z,68.48
2018-02-23T03:27:47.660Z,68.61
2018-02-23T03:30:16.212Z,68.29
2018-02-23T03:32:44.682Z,68.92
2018-02-23T03:35:13.501Z,68.72
2018-02-23T03:37:43.026Z,68.41
2018-02-23T03:40:11.591Z,69.04
2018-02-23T03:42:40.696Z,69.47
2018-02-23T03:45:09.577Z,69.81
2018-02-23T03:47:38.130Z,69.48
2018-02-23T03:50:08.350Z,69.69
2018-02-23T03:52:36.833Z,69.37
2018-02-23T03:55:05.323Z,69.48
2018-02-23T03:57:34.360Z,69.37
2018-02-23T04:00:02.948Z,69.06
2018-02-23T04:02:31.377Z,69.24
2018-02-23T04:04:59.857Z,68.81
2018-02-23T04:07:28.433Z,68.54
2018-02-23T04:09:56.860Z,68.65
2018-02-23T04:12:25.380Z,69.08
2018-02-23T04:14:53.880Z,68.82
2018-02-23T04:17:22.282Z,69.25
2018-02-23T04:19:51.529Z,69.27
2018-02-23T04:22:20.984Z,69.35
2018-02-23T04:24:49.590Z,69.02
2018-02-23T04:27:18.907Z,69.16
2018-02-23T04:29:47.335Z,69.38
2018-02-23T04:32:15.860Z,69.01
2018-02-23T04:34:47.061Z,68.95
2018-02-23T04:37:15.697Z,69.09
2018-02-23T04:39:44.172Z,68.94
2018-02-23T04:42:12.718Z,68.78
2018-02-23T04:44:41.198Z,68.90
2018-02-23T04:47:09.646Z,68.74
2018-02-23T04:49:38.537Z,68.82
2018-02-23T04:52:06.943Z,69.21
2018-02-23T04:54:35.464Z,68.96
2018-02-23T04:57:04.491Z,68.76
2018-02-23T04:59:32.949Z,68.84
2018-02-23T05:02:01.377Z,68.58
2018-02-23T05:04:30.381Z,68.43
2018-02-23T05:06:58.818Z,68.32
2018-02-23T05:09:27.262Z,68.56
2018-02-23T05:11:55.883Z,68.23
2018-02-23T05:14:24.320Z,68.69
2018-02-23T05:16:52.765Z,69.11
2018-02-23T05:19:21.226Z,68.80
2018-02-23T05:21:49.773Z,68.76
2018-02-23T05:24:18.209Z,68.72
2018-02-23T05:26:46.767Z,68.96
2018-02-23T05:29:15.436Z,68.55
2018-02-23T05:31:43.939Z,68.60
2018-02-23T05:34:12.533Z,68.48
2018-02-23T05:36:40.982Z,68.37
2018-02-23T05:39:09.609Z,68.64
2018-02-23T05:41:38.225Z,68.34
2018-02-23T05:44:06.758Z,68.51
2018-02-23T05:46:36.382Z,68.88
2018-02-23T05:49:05.870Z,68.94
2018-02-23T05:51:35.691Z,69.16
2018-02-23T05:54:04.482Z,68.49
2018-02-23T05:56:33.491Z,68.80
2018-02-23T05:59:01.953Z,68.99
2018-02-23T06:01:30.419Z,68.76
2018-02-23T06:03:59.695Z,68.87
2018-02-23T06:06:28.156Z,68.65
2018-02-23T06:08:56.642Z,68.41
2018-02-23T06:11:25.099Z,68.04
2018-02-23T06:13:53.580Z,68.29
2018-02-23T06:16:28.600Z,67.80
2018-02-23T06:18:59.187Z,67.56
2018-02-23T06:21:27.809Z,67.11
2018-02-23T06:23:56.410Z,67.26
2018-02-23T06:26:24.878Z,67.03
2018-02-23T06:28:53.314Z,67.14
2018-02-23T06:31:21.812Z,67.11
2018-02-23T06:33:50.298Z,66.63
2018-02-23T06:36:18.701Z,66.71
2018-02-23T06:38:47.328Z,67.21
2018-02-23T06:41:16.019Z,67.13
2018-02-23T06:43:44.432Z,67.07
2018-02-23T06:46:14.185Z,67.09
2018-02-23T06:48:42.793Z,66.95
2018-02-23T06:51:11.320Z,66.35
2018-02-23T06:53:40.633Z,66.26
2018-02-23T06:56:09.195Z,66.21
2018-02-23T06:58:37.729Z,66.05
2018-02-23T07:01:06.265Z,66.20
2018-02-23T07:03:35.196Z,66.52
2018-02-23T07:06:03.615Z,65.78
2018-02-23T07:08:32.161Z,65.85
2018-02-23T07:11:00.613Z,66.01
2018-02-23T07:13:29.054Z,65.98
2018-02-23T07:15:57.642Z,66.12
2018-02-23T07:18:26.116Z,65.97
2018-02-23T07:20:54.610Z,65.52
2018-02-23T07:23:23.402Z,65.46
2018-02-23T07:25:51.982Z,65.06
2018-02-23T07:28:20.440Z,64.26
2018-02-23T07:30:49.096Z,63.88
2018-02-23T07:33:17.590Z,64.15
2018-02-23T07:35:46.035Z,64.40
2018-02-23T07:38:14.516Z,63.75
2018-02-23T07:40:42.963Z,63.00
2018-02-23T07:43:11.393Z,63.01
2018-02-23T07:45:40.167Z,63.22
2018-02-23T07:48:08.633Z,63.55
2018-02-23T07:50:37.349Z,63.22
2018-02-23T07:53:06.001Z,63.20
2018-02-23T07:55:34.573Z,63.08
2018-02-23T07:58:03.138Z,63.14
2018-02-23T08:00:31.702Z,62.36
2018-02-23T08:03:00.125Z,62.71
2018-02-23T08:05:28.567Z,62.26
2018-02-23T08:07:57.813Z,61.59
2018-02-23T08:10:26.247Z,61.72
2018-02-23T08:12:54.653Z,61.41
2018-02-23T08:15:23.251Z,61.50
2018-02-23T08:17:51.676Z,61.54
2018-02-23T08:20:20.187Z,60.78
2018-02-23T08:22:49.919Z,59.97
2018-02-23T08:25:18.380Z,59.59
2018-02-23T08:27:46.908Z,60.30
2018-02-23T08:30:15.498Z,59.70
2018-02-23T08:32:44.106Z,59.31
2018-02-23T08:35:12.529Z,58.61
2018-02-23T08:37:42.853Z,58.30
2018-02-23T08:40:11.313Z,57.22
2018-02-23T08:42:40.032Z,57.47
2018-02-23T08:45:09.476Z,57.20
2018-02-23T08:47:38.262Z,54.73
2018-02-23T08:50:06.820Z,53.46
2018-02-23T08:52:36.521Z,53.25
2018-02-23T08:55:05.088Z,51.82
2018-02-23T08:57:33.518Z,51.31
2018-02-23T09:00:02.623Z,50.01
2018-02-23T09:02:31.078Z,49.96
2018-02-23T09:04:59.498Z,51.13
2018-02-23T09:07:28.070Z,51.08
2018-02-23T09:09:56.546Z,49.44
2018-02-23T09:12:25.008Z,48.59
2018-02-23T09:14:53.517Z,48.89
2018-02-23T09:17:21.997Z,49.16
2018-02-23T09:19:50.547Z,48.54
2018-02-23T09:22:19.030Z,46.51
2018-02-23T09:24:47.453Z,46.12
2018-02-23T09:27:15.945Z,45.32
2018-02-23T09:29:44.434Z,44.36
2018-02-23T09:35:15.986Z,43.54
2018-02-23T09:37:44.469Z,44.56
2018-02-23T09:40:12.969Z,45.64
2018-02-23T09:42:41.501Z,46.28
2018-02-23T09:45:09.920Z,47.40
2018-02-23T09:47:38.524Z,48.15
2018-02-23T09:50:07.063Z,49.05
2018-02-23T09:52:35.543Z,49.44
2018-02-23T09:55:04.037Z,49.70
2018-02-23T09:57:33.004Z,48.83
2018-02-23T10:00:01.438Z,47.76
2018-02-23T10:02:29.986Z,47.69
2018-02-23T10:04:59.103Z,45.96
2018-02-23T10:07:27.528Z,44.62
2018-02-23T10:09:56.473Z,44.73
2018-02-23T10:12:24.945Z,46.13
2018-02-23T10:14:53.430Z,45.39
2018-02-23T10:17:21.865Z,42.36
2018-02-23T10:19:50.472Z,43.08
2018-02-23T10:22:19.110Z,42.33
2018-02-23T10:24:47.542Z,42.34
2018-02-23T10:27:16.126Z,43.81
2018-02-23T10:29:44.613Z,43.14
2018-02-23T10:32:13.056Z,43.57
2018-02-23T10:34:42.421Z,43.06
2018-02-23T10:37:10.969Z,43.81
2018-02-23T10:39:39.461Z,41.49
2018-02-23T10:42:08.108Z,40.40
2018-02-23T10:44:36.737Z,41.29
2018-02-23T10:47:05.653Z,41.71
2018-02-23T10:49:35.588Z,40.44
2018-02-23T10:52:04.063Z,39.54
2018-02-23T10:54:32.627Z,39.74
2018-02-23T10:57:01.142Z,39.78
2018-02-23T10:59:29.618Z,40.67
2018-02-23T11:01:58.168Z,41.25
2018-02-23T11:04:26.701Z,42.22
2018-02-23T11:06:55.141Z,41.83
2018-02-23T11:09:23.662Z,41.36
2018-02-23T11:11:58.270Z,38.94
2018-02-23T11:14:26.682Z,38.57
2018-02-23T11:16:55.113Z,40.78
2018-02-23T11:19:23.576Z,41.76
2018-02-23T11:21:52.710Z,42.22
2018-02-23T11:24:21.224Z,42.07
2018-02-23T11:26:50.650Z,43.34
2018-02-23T11:29:19.213Z,42.49
2018-02-23T11:31:48.582Z,43.29
2018-02-23T11:34:18.483Z,43.17
2018-02-23T11:36:46.898Z,43.14
2018-02-23T11:39:15.332Z,43.14
2018-02-23T11:41:43.803Z,41.92
2018-02-23T11:44:12.200Z,43.46
2018-02-23T11:46:40.693Z,44.75
2018-02-23T11:49:09.625Z,44.10
2018-02-23T11:51:38.069Z,43.16
2018-02-23T11:54:06.895Z,42.03
2018-02-23T11:56:35.810Z,41.73
2018-02-23T11:59:04.269Z,42.76
2018-02-23T12:01:32.773Z,43.41
2018-02-23T12:04:01.434Z,44.15
2018-02-23T12:06:29.938Z,47.24
2018-02-23T12:08:58.629Z,46.97
2018-02-23T12:11:28.055Z,47.48
2018-02-23T12:13:56.688Z,46.99
2018-02-23T12:16:26.103Z,45.37
2018-02-23T12:18:54.548Z,43.88
2018-02-23T12:21:23.024Z,42.38
2018-02-23T12:23:58.621Z,42.11
2018-02-23T12:26:27.133Z,42.77
2018-02-23T12:28:55.831Z,43.50
2018-02-23T12:31:24.442Z,43.69
2018-02-23T12:33:52.878Z,42.62
2018-02-23T12:36:21.292Z,44.64
2018-02-23T12:38:49.753Z,46.31
2018-02-23T12:41:18.156Z,46.91
2018-02-23T12:43:46.602Z,47.60
2018-02-23T12:46:15.069Z,47.43
2018-02-23T12:48:43.572Z,47.96
2018-02-23T12:51:12.108Z,48.17
2018-02-23T12:53:40.590Z,48.24
2018-02-23T12:56:09.480Z,49.55
2018-02-23T12:58:38.026Z,48.85
2018-02-23T13:01:07.492Z,50.59
2018-02-23T13:03:36.219Z,50.36
2018-02-23T13:06:05.014Z,50.23
2018-02-23T13:08:34.411Z,50.39
2018-02-23T13:11:02.908Z,49.36
2018-02-23T13:13:31.432Z,49.56
2018-02-23T13:16:00.813Z,49.13
2018-02-23T13:18:29.356Z,49.06
2018-02-23T13:20:57.994Z,48.83
2018-02-23T13:23:26.823Z,48.71
2018-02-23T13:25:55.311Z,48.08
2018-02-23T13:28:29.912Z,48.45
2018-02-23T13:30:58.373Z,49.33
2018-02-23T13:33:27.546Z,48.77
2018-02-23T13:35:56.262Z,48.82
2018-02-23T13:38:24.752Z,49.27
2018-02-23T13:40:59.025Z,49.71
2018-02-23T13:43:27.444Z,50.68
2018-02-23T13:45:55.927Z,50.39
2018-02-23T13:48:24.955Z,50.26
2018-02-23T13:50:54.142Z,50.03
2018-02-23T13:53:22.684Z,50.62
2018-02-23T13:55:51.215Z,50.54
2018-02-23T13:58:19.662Z,50.94
2018-02-23T14:00:48.165Z,51.41
2018-02-23T14:03:18.231Z,50.99
2018-02-23T14:05:46.663Z,51.01
2018-02-23T14:08:15.090Z,51.52
2018-02-23T14:10:45.003Z,51.18
2018-02-23T14:13:13.436Z,51.15
2018-02-23T14:15:41.916Z,50.74
2018-02-23T14:18:10.535Z,50.59
2018-02-23T14:20:38.962Z,51.12
2018-02-23T14:23:07.380Z,50.96
2018-02-23T14:25:35.887Z,50.43
2018-02-23T14:28:04.321Z,50.05
2018-02-23T14:30:32.784Z,50.15
2018-02-23T14:33:01.282Z,50.86
2018-02-23T14:35:29.695Z,51.31
2018-02-23T14:37:58.189Z,50.76
2018-02-23T14:40:26.675Z,50.92
2018-02-23T14:42:55.165Z,49.94
2018-02-23T14:45:23.619Z,50.27
2018-02-23T14:47:52.174Z,50.68
2018-02-23T14:50:32.692Z,50.83
2018-02-23T14:53:02.403Z,50.38
2018-02-23T14:55:31.034Z,50.00
2018-02-23T14:58:00.052Z,50.33
2018-02-23T15:00:29.784Z,50.41
2018-02-23T15:02:58.623Z,49.14
2018-02-23T15:05:27.183Z,49.42
2018-02-23T15:07:55.797Z,49.60
2018-02-23T15:10:24.236Z,50.12
2018-02-23T15:12:52.657Z,51.09
2018-02-23T15:15:21.662Z,51.34
2018-02-23T15:17:50.090Z,51.19
2018-02-23T15:20:18.531Z,51.17
2018-02-23T15:22:47.809Z,50.58
2018-02-23T15:25:16.250Z,50.40
2018-02-23T15:27:44.717Z,51.12
2018-02-23T15:30:25.326Z,51.35
2018-02-23T15:32:53.774Z,51.30
2018-02-23T15:35:22.226Z,51.05
2018-02-23T15:37:50.837Z,50.52
2018-02-23T15:40:19.312Z,50.97
2018-02-23T15:42:47.748Z,50.08
2018-02-23T15:45:16.287Z,50.92
2018-02-23T15:51:00.705Z,52.00
2018-02-23T15:53:29.500Z,52.09
2018-02-23T15:56:00.247Z,52.36
2018-02-23T15:58:35.626Z,52.46
2018-02-23T16:01:04.129Z,53.18
2018-02-23T16:03:32.744Z,53.18
2018-02-23T16:06:02.507Z,52.69
2018-02-23T16:08:31.411Z,52.34
2018-02-23T16:11:00.194Z,52.19
2018-02-23T16:13:28.849Z,51.80
2018-02-23T16:15:57.366Z,52.44
2018-02-23T16:18:25.885Z,52.77
2018-02-23T16:20:54.363Z,52.94
2018-02-23T16:23:22.799Z,53.42
2018-02-23T16:25:51.207Z,53.82
2018-02-23T16:28:19.657Z,53.90
2018-02-23T16:30:48.117Z,54.33
2018-02-23T16:33:16.561Z,54.69
2018-02-23T16:35:45.136Z,55.04
2018-02-23T16:38:13.857Z,55.58
2018-02-23T16:40:42.310Z,55.25
2018-02-23T16:43:11.738Z,54.85
2018-02-23T16:45:41.137Z,54.89
2018-02-23T16:48:09.570Z,54.66
2018-02-23T16:50:38.105Z,54.66
2018-02-23T16:53:06.835Z,55.26
2018-02-23T16:55:35.718Z,55.35
2018-02-23T16:58:04.206Z,55.74
2018-02-23T17:00:32.715Z,55.88
2018-02-23T17:03:01.266Z,55.70
2018-02-23T17:05:29.808Z,55.70
2018-02-23T17:07:58.441Z,56.19
2018-02-23T17:10:26.970Z,55.79
2018-02-23T17:12:55.973Z,56.07
2018-02-23T17:15:24.481Z,56.50
2018-02-23T17:17:52.937Z,56.52
2018-02-23T17:20:22.041Z,56.80
2018-02-23T17:22:50.473Z,56.76
2018-02-23T17:25:18.897Z,56.77
2018-02-23T17:27:47.847Z,57.23
2018-02-23T17:30:16.254Z,57.14
2018-02-23T17:32:44.719Z,57.56
2018-02-23T17:35:13.159Z,57.74
2018-02-23T17:37:41.652Z,57.41
2018-02-23T17:40:10.090Z,57.90
2018-02-23T17:42:38.704Z,57.81
2018-02-23T17:45:07.357Z,58.00
2018-02-23T17:47:35.883Z,58.15
2018-02-23T17:50:04.548Z,57.82
2018-02-23T17:52:33.173Z,58.02
2018-02-23T17:55:01.719Z,57.69
2018-02-23T17:57:30.444Z,58.13
2018-02-23T17:59:58.926Z,58.36
2018-02-23T18:02:28.261Z,58.65
2018-02-23T18:04:56.970Z,58.63
2018-02-23T18:07:25.534Z,58.73
2018-02-23T18:09:53.976Z,58.36
2018-02-23T18:12:22.759Z,58.56
2018-02-23T18:14:51.235Z,58.85
2018-02-23T18:17:19.649Z,58.62
2018-02-23T18:19:48.740Z,59.09
2018-02-23T18:22:17.190Z,59.36
2018-02-23T18:24:45.630Z,59.06
2018-02-23T18:27:14.103Z,58.97
2018-02-23T18:29:42.556Z,59.35
2018-02-23T18:32:10.972Z,59.04
2018-02-23T18:34:40.042Z,59.51
2018-02-23T18:37:08.466Z,59.50
2018-02-23T18:39:37.031Z,59.42
2018-02-23T18:42:06.505Z,59.44
2018-02-23T18:44:35.190Z,59.45
2018-02-23T18:47:03.920Z,59.70
2018-02-23T18:49:32.755Z,58.96
2018-02-23T18:52:01.304Z,58.83
2018-02-23T18:54:29.943Z,58.85
2018-02-23T18:56:58.675Z,59.43
2018-02-23T18:59:27.486Z,59.29
2018-02-23T19:01:55.955Z,59.68
2018-02-23T19:04:24.481Z,58.90
2018-02-23T19:06:55.594Z,59.08
2018-02-23T19:09:24.271Z,59.41
2018-02-23T19:11:54.110Z,59.55
2018-02-23T19:14:22.644Z,59.07
2018-02-23T19:16:51.094Z,59.12
2018-02-23T19:19:19.601Z,59.42
2018-02-23T19:21:48.252Z,59.21
2018-02-23T19:24:16.810Z,59.34
2018-02-23T19:26:45.693Z,59.59
2018-02-23T19:29:14.185Z,59.82
2018-02-23T19:31:42.669Z,60.16
2018-02-23T19:34:11.278Z,60.17
2018-02-23T19:36:39.766Z,59.84
2018-02-23T19:39:08.267Z,59.69
2018-02-23T19:41:36.856Z,59.89
2018-02-23T19:44:05.439Z,59.61
2018-02-23T19:46:36.373Z,59.99
2018-02-23T19:49:05.713Z,60.04
2018-02-23T19:51:35.216Z,60.14
2018-02-23T19:54:04.285Z,60.15
2018-02-23T19:56:33.328Z,60.08
2018-02-23T19:59:02.919Z,60.13
2018-02-23T20:01:32.008Z,60.23
2018-02-23T20:04:01.407Z,60.13
2018-02-23T20:06:30.941Z,60.57
2018-02-23T20:09:00.119Z,60.21
2018-02-23T20:11:29.663Z,60.11
2018-02-23T20:13:59.051Z,60.00
2018-02-23T20:16:28.906Z,60.23
2018-02-23T20:19:00.070Z,60.09
2018-02-23T20:21:29.940Z,60.52
2018-02-23T20:23:59.935Z,60.68
2018-02-23T20:26:31.451Z,60.64
2018-02-23T20:29:01.449Z,60.49
2018-02-23T20:31:31.185Z,60.71
2018-02-23T20:34:02.048Z,60.57
2018-02-23T20:36:31.032Z,60.50
2018-02-23T20:39:01.861Z,60.95
2018-02-23T20:41:31.413Z,60.49
2018-02-23T20:44:00.785Z,60.69
2018-02-23T20:46:30.282Z,60.24
2018-02-23T20:49:00.093Z,60.42
2018-02-23T20:51:30.008Z,60.84
2018-02-23T20:53:59.505Z,60.99
2018-02-23T20:56:28.703Z,60.62
2018-02-23T20:58:59.344Z,61.19
2018-02-23T21:01:28.989Z,61.29
2018-02-23T21:03:58.294Z,61.44
2018-02-23T21:06:28.315Z,61.30
2018-02-23T21:08:58.893Z,61.37
2018-02-23T21:11:29.549Z,61.05
2018-02-23T21:14:00.569Z,61.38
2018-02-23T21:16:29.919Z,61.58
2018-02-23T21:18:59.281Z,61.69
2018-02-23T21:21:29.251Z,61.62
2018-02-23T21:23:58.645Z,61.76
2018-02-23T21:26:27.927Z,62.18
2018-02-23T21:28:58.520Z,62.21
2018-02-23T21:31:28.031Z,62.04
2018-02-23T21:33:57.588Z,61.91
2018-02-23T21:36:32.454Z,62.32
2018-02-23T21:39:03.317Z,62.48
2018-02-23T21:41:46.104Z,62.56
2018-02-23T21:44:15.315Z,62.54
2018-02-23T21:46:44.021Z,62.93
2018-02-23T21:49:12.530Z,63.01
2018-02-23T21:51:41.766Z,63.20
2018-02-23T21:54:10.811Z,63.31
2018-02-23T21:56:41.679Z,63.31
2018-02-23T21:59:10.864Z,63.67
2018-02-23T22:01:40.430Z,63.53
2018-02-23T22:04:10.557Z,63.47
2018-02-23T22:06:39.464Z,63.26
2018-02-23T22:09:08.531Z,63.53
2018-02-23T22:11:38.244Z,63.39
2018-02-23T22:14:08.565Z,63.34
2018-02-23T22:16:37.774Z,63.07
2018-02-23T22:19:06.902Z,62.99
2018-02-23T22:21:36.065Z,62.92
2018-02-23T22:24:04.825Z,62.96
2018-02-23T22:26:33.749Z,62.87
2018-02-23T22:29:03.054Z,62.88
2018-02-23T22:31:32.718Z,62.84
2018-02-23T22:34:01.461Z,62.60
2018-02-23T22:36:31.154Z,62.80
2018-02-23T22:38:59.880Z,63.22
2018-02-23T22:41:28.859Z,63.19
2018-02-23T22:43:57.417Z,63.31
2018-02-23T22:46:25.848Z,62.92
2018-02-23T22:48:55.087Z,62.66
2018-02-23T22:51:23.615Z,62.75
2018-02-23T22:53:52.342Z,62.85
2018-02-23T22:56:20.907Z,62.80
2018-02-23T22:58:49.616Z,62.89
2018-02-23T23:01:18.045Z,62.83
2018-02-23T23:03:47.156Z,62.68
2018-02-23T23:06:16.111Z,62.38
2018-02-23T23:08:45.161Z,62.61
2018-02-23T23:11:14.456Z,62.25
2018-02-23T23:13:42.864Z,62.31
2018-02-23T23:16:11.296Z,62.22
2018-02-23T23:18:39.808Z,62.31
2018-02-23T23:21:08.230Z,62.15
2018-02-23T23:23:36.690Z,62.26
2018-02-23T23:26:05.307Z,62.36
2018-02-23T23:28:33.807Z,62.01
2018-02-23T23:31:02.356Z,61.87
2018-02-23T23:33:31.080Z,62.45
2018-02-23T23:35:59.593Z,61.98
2018-02-23T23:38:28.185Z,62.53
2018-02-23T23:40:58.153Z,62.57
2018-02-23T23:43:26.735Z,62.72
2018-02-23T23:45:55.231Z,62.62
2018-02-23T23:48:23.753Z,62.88
2018-02-23T23:50:52.274Z,63.04
2018-02-23T23:53:20.864Z,63.60
2018-02-23T23:55:49.379Z,63.20
2018-02-23T23:58:17.832Z,63.24
